Association Sportive et Culturelle de l' Aéroport de Blagnac

Section Vol Moteur

Bienvenue sur le site ASCAB Vol Moteur

LFBO TOULOUSE-BLAGNAC

METAR :
2024/04/22 22:00 LFBO 222200Z AUTO 32007KT CAVOK 08/M02 Q1021 NOSIG

TAF :
2024/04/22 18:21 TAF LFBO 221700Z 2218/2324 31010KT CAVOK PROB40 TEMPO 2312/2318 31015G25KT